Oban, United Kingdom
Current Conditions -  °F | °C
As of 2:20 PM on Saturday 25 Oct 2014 (Local Time) from EGPU Reporting Station
Scattered Clouds Scattered Clouds  
Wind Chill: 54°   Ceiling: Unl
Heat Index: 54°   Visibility: 6mi
Dew Point: 45°   Wind: 36mph
Humidity: 72%   Direction: 240°WSW
Pressure: 29.53"   Gusts: 48mph
Location:  56.41°N, 5.47°W
Report Text: EGPU 251320Z 24031G42KT 210V270 9999 FEW032 SCT049 12/07 Q1000
Loading
Personal Weather Stations






























Interactive Weather Map
Tropical Storm Tracking
New forecast layout! Learn more

10-Day Weather Forecast

Advertisements
Track Severe Weather on mobile